sensor_id;sensor_type;location;lat;lon;timestamp;temperature;humidity
30063;DHT22;16889;67.864;24.990;2024-02-04T00:01:14;-7.40;99.90
30063;DHT22;16889;67.864;24.990;2024-02-04T00:06:00;-7.40;99.90
30063;DHT22;16889;67.864;24.990;2024-02-04T00:10:46;-7.40;99.90
30063;DHT22;16889;67.864;24.990;2024-02-04T00:15:32;-7.40;99.90
30063;DHT22;16889;67.864;24.990;2024-02-04T00:20:18;-7.40;99.90
30063;DHT22;16889;67.864;24.990;2024-02-04T00:25:04;-7.30;99.90
30063;DHT22;16889;67.864;24.990;2024-02-04T00:29:50;-7.20;99.90
30063;DHT22;16889;67.864;24.990;2024-02-04T00:34:36;-7.10;99.90
30063;DHT22;16889;67.864;24.990;2024-02-04T00:39:22;-7.00;99.90
30063;DHT22;16889;67.864;24.990;2024-02-04T00:44:08;-6.90;99.90
30063;DHT22;16889;67.864;24.990;2024-02-04T00:48:54;-6.80;99.90
30063;DHT22;16889;67.864;24.990;2024-02-04T00:53:40;-6.70;99.90
30063;DHT22;16889;67.864;24.990;2024-02-04T00:58:26;-6.80;99.90
30063;DHT22;16889;67.864;24.990;2024-02-04T01:03:12;-6.80;99.90
30063;DHT22;16889;67.864;24.990;2024-02-04T01:07:57;-6.70;99.90
30063;DHT22;16889;67.864;24.990;2024-02-04T01:12:43;-6.60;99.90
30063;DHT22;16889;67.864;24.990;2024-02-04T01:17:29;-6.90;99.90
30063;DHT22;16889;67.864;24.990;2024-02-04T01:22:15;-6.70;99.90
30063;DHT22;16889;67.864;24.990;2024-02-04T01:27:01;-7.00;99.90
30063;DHT22;16889;67.864;24.990;2024-02-04T01:31:47;-7.20;99.90
30063;DHT22;16889;67.864;24.990;2024-02-04T01:36:33;-7.30;99.90
30063;DHT22;16889;67.864;24.990;2024-02-04T01:41:19;-7.40;99.90
30063;DHT22;16889;67.864;24.990;2024-02-04T01:46:05;-7.40;99.90
30063;DHT22;16889;67.864;24.990;2024-02-04T01:50:53;-7.50;99.90
30063;DHT22;16889;67.864;24.990;2024-02-04T01:55:40;-7.60;99.90
30063;DHT22;16889;67.864;24.990;2024-02-04T02:00:26;-7.60;99.90
30063;DHT22;16889;67.864;24.990;2024-02-04T02:05:12;-7.60;99.90
30063;DHT22;16889;67.864;24.990;2024-02-04T02:09:58;-7.60;99.90
30063;DHT22;16889;67.864;24.990;2024-02-04T02:14:48;-7.70;99.90
30063;DHT22;16889;67.864;24.990;2024-02-04T02:19:57;-7.80;99.90
30063;DHT22;16889;67.864;24.990;2024-02-04T02:24:47;-7.90;99.90
30063;DHT22;16889;67.864;24.990;2024-02-04T02:29:34;-7.80;99.90
30063;DHT22;16889;67.864;24.990;2024-02-04T02:34:21;-7.80;99.90
30063;DHT22;16889;67.864;24.990;2024-02-04T02:39:17;-7.60;99.90
30063;DHT22;16889;67.864;24.990;2024-02-04T02:44:05;-7.30;99.90
30063;DHT22;16889;67.864;24.990;2024-02-04T02:48:52;-7.10;99.90
30063;DHT22;16889;67.864;24.990;2024-02-04T02:53:38;-7.00;99.90
30063;DHT22;16889;67.864;24.990;2024-02-04T02:58:24;-6.60;99.90
30063;DHT22;16889;67.864;24.990;2024-02-04T03:03:10;-6.30;99.90
30063;DHT22;16889;67.864;24.990;2024-02-04T03:07:56;-6.30;99.90
30063;DHT22;16889;67.864;24.990;2024-02-04T03:12:42;-6.20;99.90
30063;DHT22;16889;67.864;24.990;2024-02-04T03:17:28;-6.20;99.90
30063;DHT22;16889;67.864;24.990;2024-02-04T03:22:14;-6.10;99.90
30063;DHT22;16889;67.864;24.990;2024-02-04T03:27:01;-6.00;99.90
30063;DHT22;16889;67.864;24.990;2024-02-04T03:31:47;-6.10;99.90
30063;DHT22;16889;67.864;24.990;2024-02-04T03:36:33;-6.20;99.90
30063;DHT22;16889;67.864;24.990;2024-02-04T03:41:19;-6.20;99.90
30063;DHT22;16889;67.864;24.990;2024-02-04T03:46:04;-6.10;99.90
30063;DHT22;16889;67.864;24.990;2024-02-04T03:50:53;-6.00;99.90
30063;DHT22;16889;67.864;24.990;2024-02-04T03:55:39;-5.90;99.90
30063;DHT22;16889;67.864;24.990;2024-02-04T04:00:25;-5.90;99.90
30063;DHT22;16889;67.864;24.990;2024-02-04T04:05:11;-5.90;99.90
30063;DHT22;16889;67.864;24.990;2024-02-04T04:09:57;-5.90;99.90
30063;DHT22;16889;67.864;24.990;2024-02-04T04:14:43;-5.80;99.90
30063;DHT22;16889;67.864;24.990;2024-02-04T04:19:29;-5.90;99.90
30063;DHT22;16889;67.864;24.990;2024-02-04T04:24:15;-5.90;99.90
30063;DHT22;16889;67.864;24.990;2024-02-04T04:29:05;-5.90;99.90
30063;DHT22;16889;67.864;24.990;2024-02-04T04:33:51;-5.80;99.90
30063;DHT22;16889;67.864;24.990;2024-02-04T04:38:39;-5.90;99.90
30063;DHT22;16889;67.864;24.990;2024-02-04T04:43:25;-5.90;99.90
30063;DHT22;16889;67.864;24.990;2024-02-04T04:48:12;-5.90;99.90
30063;DHT22;16889;67.864;24.990;2024-02-04T04:52:58;-5.90;99.90
30063;DHT22;16889;67.864;24.990;2024-02-04T04:57:44;-6.00;99.90
30063;DHT22;16889;67.864;24.990;2024-02-04T05:02:30;-6.00;99.90
30063;DHT22;16889;67.864;24.990;2024-02-04T05:07:16;-6.00;99.90
30063;DHT22;16889;67.864;24.990;2024-02-04T05:12:03;-6.00;99.90
30063;DHT22;16889;67.864;24.990;2024-02-04T05:16:49;-5.90;99.90
30063;DHT22;16889;67.864;24.990;2024-02-04T05:21:38;-5.80;99.90
30063;DHT22;16889;67.864;24.990;2024-02-04T05:26:25;-5.80;99.90
30063;DHT22;16889;67.864;24.990;2024-02-04T05:31:11;-5.70;99.90
30063;DHT22;16889;67.864;24.990;2024-02-04T05:35:57;-5.70;99.90
30063;DHT22;16889;67.864;24.990;2024-02-04T05:40:43;-5.60;99.90
30063;DHT22;16889;67.864;24.990;2024-02-04T05:45:29;-5.40;99.90
30063;DHT22;16889;67.864;24.990;2024-02-04T05:50:15;-5.40;99.90
30063;DHT22;16889;67.864;24.990;2024-02-04T05:55:01;-5.50;99.90
30063;DHT22;16889;67.864;24.990;2024-02-04T05:59:47;-5.40;99.90
30063;DHT22;16889;67.864;24.990;2024-02-04T06:04:34;-5.40;99.90
30063;DHT22;16889;67.864;24.990;2024-02-04T06:09:22;-5.30;99.90
30063;DHT22;16889;67.864;24.990;2024-02-04T06:14:08;-5.30;99.90
30063;DHT22;16889;67.864;24.990;2024-02-04T06:18:53;-5.10;99.90
30063;DHT22;16889;67.864;24.990;2024-02-04T06:23:42;-5.00;99.90
30063;DHT22;16889;67.864;24.990;2024-02-04T06:28:28;-5.10;99.90
30063;DHT22;16889;67.864;24.990;2024-02-04T06:33:14;-5.00;99.90
30063;DHT22;16889;67.864;24.990;2024-02-04T06:38:00;-5.10;99.90
30063;DHT22;16889;67.864;24.990;2024-02-04T06:42:46;-5.10;99.90
30063;DHT22;16889;67.864;24.990;2024-02-04T06:47:32;-5.00;99.90
30063;DHT22;16889;67.864;24.990;2024-02-04T06:52:17;-5.00;99.90
30063;DHT22;16889;67.864;24.990;2024-02-04T06:57:04;-5.10;99.90
30063;DHT22;16889;67.864;24.990;2024-02-04T07:01:50;-5.10;99.90
30063;DHT22;16889;67.864;24.990;2024-02-04T07:06:36;-5.10;99.90
30063;DHT22;16889;67.864;24.990;2024-02-04T07:11:21;-4.80;99.90
30063;DHT22;16889;67.864;24.990;2024-02-04T07:16:07;-4.80;99.90
30063;DHT22;16889;67.864;24.990;2024-02-04T07:20:53;-4.80;99.90
30063;DHT22;16889;67.864;24.990;2024-02-04T07:25:39;-4.90;99.90
30063;DHT22;16889;67.864;24.990;2024-02-04T07:30:25;-4.90;99.90
30063;DHT22;16889;67.864;24.990;2024-02-04T07:35:11;-4.90;99.90
30063;DHT22;16889;67.864;24.990;2024-02-04T07:39:58;-4.80;99.90
30063;DHT22;16889;67.864;24.990;2024-02-04T07:44:44;-4.50;99.90
30063;DHT22;16889;67.864;24.990;2024-02-04T07:49:30;-4.50;99.90
30063;DHT22;16889;67.864;24.990;2024-02-04T07:54:16;-4.50;99.90
30063;DHT22;16889;67.864;24.990;2024-02-04T07:59:02;-4.50;99.90
30063;DHT22;16889;67.864;24.990;2024-02-04T08:03:49;-4.40;99.90
30063;DHT22;16889;67.864;24.990;2024-02-04T08:08:35;-4.40;99.90
30063;DHT22;16889;67.864;24.990;2024-02-04T08:13:20;-4.40;99.90
30063;DHT22;16889;67.864;24.990;2024-02-04T08:18:06;-4.40;99.90
30063;DHT22;16889;67.864;24.990;2024-02-04T08:22:55;-4.40;99.90
30063;DHT22;16889;67.864;24.990;2024-02-04T08:27:41;-4.40;99.90
30063;DHT22;16889;67.864;24.990;2024-02-04T08:32:27;-4.30;99.90
30063;DHT22;16889;67.864;24.990;2024-02-04T08:37:12;-3.90;99.90
30063;DHT22;16889;67.864;24.990;2024-02-04T08:41:58;-4.00;99.90
30063;DHT22;16889;67.864;24.990;2024-02-04T08:46:44;-4.10;99.90
30063;DHT22;16889;67.864;24.990;2024-02-04T08:51:30;-4.20;99.90
30063;DHT22;16889;67.864;24.990;2024-02-04T08:56:16;-4.10;99.90
30063;DHT22;16889;67.864;24.990;2024-02-04T09:01:02;-4.10;99.90
30063;DHT22;16889;67.864;24.990;2024-02-04T09:05:48;-4.20;99.90
30063;DHT22;16889;67.864;24.990;2024-02-04T09:10:51;-4.10;99.90
30063;DHT22;16889;67.864;24.990;2024-02-04T09:15:37;-4.00;99.90
30063;DHT22;16889;67.864;24.990;2024-02-04T09:20:22;-4.00;99.90
30063;DHT22;16889;67.864;24.990;2024-02-04T09:25:08;-4.10;99.90
30063;DHT22;16889;67.864;24.990;2024-02-04T09:29:54;-3.90;99.90
30063;DHT22;16889;67.864;24.990;2024-02-04T09:34:41;-3.80;99.90
30063;DHT22;16889;67.864;24.990;2024-02-04T09:39:26;-4.00;99.90
30063;DHT22;16889;67.864;24.990;2024-02-04T09:44:13;-3.90;99.90
30063;DHT22;16889;67.864;24.990;2024-02-04T09:49:00;-3.90;99.90
30063;DHT22;16889;67.864;24.990;2024-02-04T09:53:52;-4.00;99.90
30063;DHT22;16889;67.864;24.990;2024-02-04T09:58:38;-4.00;99.90
30063;DHT22;16889;67.864;24.990;2024-02-04T10:03:24;-4.00;99.90
30063;DHT22;16889;67.864;24.990;2024-02-04T10:08:10;-4.20;99.90
30063;DHT22;16889;67.864;24.990;2024-02-04T10:12:56;-4.10;99.90
30063;DHT22;16889;67.864;24.990;2024-02-04T10:17:45;-4.20;99.90
30063;DHT22;16889;67.864;24.990;2024-02-04T10:22:32;-4.20;99.90
30063;DHT22;16889;67.864;24.990;2024-02-04T10:27:18;-4.30;99.90
30063;DHT22;16889;67.864;24.990;2024-02-04T10:32:05;-4.50;99.90
30063;DHT22;16889;67.864;24.990;2024-02-04T10:36:52;-4.60;99.90
30063;DHT22;16889;67.864;24.990;2024-02-04T10:41:42;-4.40;99.90
30063;DHT22;16889;67.864;24.990;2024-02-04T10:46:30;-4.20;99.90
30063;DHT22;16889;67.864;24.990;2024-02-04T10:51:24;-4.20;99.90
30063;DHT22;16889;67.864;24.990;2024-02-04T10:56:22;-4.30;99.90
30063;DHT22;16889;67.864;24.990;2024-02-04T11:01:09;-4.40;99.90
30063;DHT22;16889;67.864;24.990;2024-02-04T11:05:55;-4.30;99.90
30063;DHT22;16889;67.864;24.990;2024-02-04T11:10:44;-4.30;99.90
30063;DHT22;16889;67.864;24.990;2024-02-04T11:15:35;-4.30;99.90
30063;DHT22;16889;67.864;24.990;2024-02-04T11:25:31;-4.50;99.90
30063;DHT22;16889;67.864;24.990;2024-02-04T11:30:23;-4.40;99.90
30063;DHT22;16889;67.864;24.990;2024-02-04T11:40:15;-4.50;99.90
30063;DHT22;16889;67.864;24.990;2024-02-04T11:45:14;-4.50;99.90
30063;DHT22;16889;67.864;24.990;2024-02-04T11:50:02;-4.60;99.90
30063;DHT22;16889;67.864;24.990;2024-02-04T11:54:51;-4.60;99.90
30063;DHT22;16889;67.864;24.990;2024-02-04T11:59:37;-4.70;99.90
30063;DHT22;16889;67.864;24.990;2024-02-04T12:04:24;-4.80;99.90
30063;DHT22;16889;67.864;24.990;2024-02-04T12:09:17;-4.90;99.90
30063;DHT22;16889;67.864;24.990;2024-02-04T12:14:06;-4.90;99.90
30063;DHT22;16889;67.864;24.990;2024-02-04T12:18:52;-5.00;99.90
30063;DHT22;16889;67.864;24.990;2024-02-04T12:23:38;-5.00;99.90
30063;DHT22;16889;67.864;24.990;2024-02-04T12:28:26;-5.00;99.90
30063;DHT22;16889;67.864;24.990;2024-02-04T12:33:12;-4.90;99.90
30063;DHT22;16889;67.864;24.990;2024-02-04T12:38:02;-4.90;99.90
30063;DHT22;16889;67.864;24.990;2024-02-04T12:43:01;-4.80;99.90
30063;DHT22;16889;67.864;24.990;2024-02-04T12:47:52;-4.80;99.90
30063;DHT22;16889;67.864;24.990;2024-02-04T12:52:39;-4.70;99.90
30063;DHT22;16889;67.864;24.990;2024-02-04T12:57:25;-4.70;99.90
30063;DHT22;16889;67.864;24.990;2024-02-04T13:02:14;-4.60;99.90
30063;DHT22;16889;67.864;24.990;2024-02-04T13:07:00;-4.60;99.90
30063;DHT22;16889;67.864;24.990;2024-02-04T13:11:46;-4.60;99.90
30063;DHT22;16889;67.864;24.990;2024-02-04T13:16:32;-4.60;99.90
30063;DHT22;16889;67.864;24.990;2024-02-04T13:21:18;-4.50;99.90
30063;DHT22;16889;67.864;24.990;2024-02-04T13:26:07;-4.50;99.90
30063;DHT22;16889;67.864;24.990;2024-02-04T13:30:53;-4.50;99.90
30063;DHT22;16889;67.864;24.990;2024-02-04T13:35:38;-4.40;99.90
30063;DHT22;16889;67.864;24.990;2024-02-04T13:40:24;-4.50;99.90
30063;DHT22;16889;67.864;24.990;2024-02-04T13:45:11;-4.40;99.90
30063;DHT22;16889;67.864;24.990;2024-02-04T13:49:59;-4.30;99.90
30063;DHT22;16889;67.864;24.990;2024-02-04T13:54:48;-4.30;99.90
30063;DHT22;16889;67.864;24.990;2024-02-04T13:59:34;-4.20;99.90
30063;DHT22;16889;67.864;24.990;2024-02-04T14:04:20;-4.30;99.90
30063;DHT22;16889;67.864;24.990;2024-02-04T14:09:07;-4.20;99.90
30063;DHT22;16889;67.864;24.990;2024-02-04T14:13:54;-4.20;99.90
30063;DHT22;16889;67.864;24.990;2024-02-04T14:18:40;-4.10;99.90
30063;DHT22;16889;67.864;24.990;2024-02-04T14:23:31;-4.20;99.90
30063;DHT22;16889;67.864;24.990;2024-02-04T14:28:17;-4.20;99.90
30063;DHT22;16889;67.864;24.990;2024-02-04T14:33:03;-4.10;99.90
30063;DHT22;16889;67.864;24.990;2024-02-04T14:37:51;-4.10;99.90
30063;DHT22;16889;67.864;24.990;2024-02-04T14:42:38;-4.10;99.90
30063;DHT22;16889;67.864;24.990;2024-02-04T14:47:24;-4.10;99.90
30063;DHT22;16889;67.864;24.990;2024-02-04T14:52:19;-4.10;99.90
30063;DHT22;16889;67.864;24.990;2024-02-04T14:57:05;-4.10;99.90
30063;DHT22;16889;67.864;24.990;2024-02-04T15:01:53;-4.10;99.90
30063;DHT22;16889;67.864;24.990;2024-02-04T15:06:49;-4.20;99.90
30063;DHT22;16889;67.864;24.990;2024-02-04T15:11:37;-4.10;99.90
30063;DHT22;16889;67.864;24.990;2024-02-04T15:16:23;-4.10;99.90
30063;DHT22;16889;67.864;24.990;2024-02-04T15:21:09;-4.20;99.90
30063;DHT22;16889;67.864;24.990;2024-02-04T15:25:56;-4.10;99.90
30063;DHT22;16889;67.864;24.990;2024-02-04T15:30:42;-4.10;99.90
30063;DHT22;16889;67.864;24.990;2024-02-04T15:35:29;-4.20;99.90
30063;DHT22;16889;67.864;24.990;2024-02-04T15:40:15;-4.20;99.90
30063;DHT22;16889;67.864;24.990;2024-02-04T15:45:02;-4.30;99.90
30063;DHT22;16889;67.864;24.990;2024-02-04T15:49:49;-4.30;99.90
30063;DHT22;16889;67.864;24.990;2024-02-04T15:54:35;-4.30;99.90
30063;DHT22;16889;67.864;24.990;2024-02-04T15:59:26;-4.20;99.90
30063;DHT22;16889;67.864;24.990;2024-02-04T16:04:13;-4.30;99.90
30063;DHT22;16889;67.864;24.990;2024-02-04T16:09:02;-4.20;99.90
30063;DHT22;16889;67.864;24.990;2024-02-04T16:13:55;-4.20;99.90
30063;DHT22;16889;67.864;24.990;2024-02-04T16:18:41;-4.20;99.90
30063;DHT22;16889;67.864;24.990;2024-02-04T16:23:27;-4.20;99.90
30063;DHT22;16889;67.864;24.990;2024-02-04T16:28:14;-4.30;99.90
30063;DHT22;16889;67.864;24.990;2024-02-04T16:33:01;-4.30;99.90
30063;DHT22;16889;67.864;24.990;2024-02-04T16:37:48;-4.30;99.90
30063;DHT22;16889;67.864;24.990;2024-02-04T16:42:33;-4.20;99.90
30063;DHT22;16889;67.864;24.990;2024-02-04T16:47:20;-4.30;99.90
30063;DHT22;16889;67.864;24.990;2024-02-04T16:52:06;-4.30;99.90
30063;DHT22;16889;67.864;24.990;2024-02-04T16:56:52;-4.30;99.90
30063;DHT22;16889;67.864;24.990;2024-02-04T17:01:38;-4.30;99.90
30063;DHT22;16889;67.864;24.990;2024-02-04T17:06:27;-4.30;99.90
30063;DHT22;16889;67.864;24.990;2024-02-04T17:11:17;-4.20;99.90
30063;DHT22;16889;67.864;24.990;2024-02-04T17:16:14;-4.20;99.90
30063;DHT22;16889;67.864;24.990;2024-02-04T17:21:04;-4.30;99.90
30063;DHT22;16889;67.864;24.990;2024-02-04T17:25:59;-4.30;99.90
30063;DHT22;16889;67.864;24.990;2024-02-04T17:30:46;-4.20;99.90
30063;DHT22;16889;67.864;24.990;2024-02-04T17:35:32;-4.20;99.90
30063;DHT22;16889;67.864;24.990;2024-02-04T17:40:18;-4.20;99.90
30063;DHT22;16889;67.864;24.990;2024-02-04T17:45:05;-4.20;99.90
30063;DHT22;16889;67.864;24.990;2024-02-04T17:49:56;-4.20;99.90
30063;DHT22;16889;67.864;24.990;2024-02-04T17:54:42;-4.30;99.90
30063;DHT22;16889;67.864;24.990;2024-02-04T17:59:28;-4.20;99.90
30063;DHT22;16889;67.864;24.990;2024-02-04T18:04:15;-4.10;99.90
30063;DHT22;16889;67.864;24.990;2024-02-04T18:09:01;-4.00;99.90
30063;DHT22;16889;67.864;24.990;2024-02-04T18:13:48;-4.10;99.90
30063;DHT22;16889;67.864;24.990;2024-02-04T18:18:34;-4.10;99.90
30063;DHT22;16889;67.864;24.990;2024-02-04T18:23:20;-4.00;99.90
30063;DHT22;16889;67.864;24.990;2024-02-04T18:28:06;-4.00;99.90
30063;DHT22;16889;67.864;24.990;2024-02-04T18:32:52;-4.10;99.90
30063;DHT22;16889;67.864;24.990;2024-02-04T18:37:38;-4.00;99.90
30063;DHT22;16889;67.864;24.990;2024-02-04T18:42:24;-4.00;99.90
30063;DHT22;16889;67.864;24.990;2024-02-04T18:47:11;-4.00;99.90
30063;DHT22;16889;67.864;24.990;2024-02-04T18:51:57;-3.90;99.90
30063;DHT22;16889;67.864;24.990;2024-02-04T18:56:43;-3.90;99.90
30063;DHT22;16889;67.864;24.990;2024-02-04T19:01:35;-4.00;99.90
30063;DHT22;16889;67.864;24.990;2024-02-04T19:06:28;-3.90;99.90
30063;DHT22;16889;67.864;24.990;2024-02-04T19:11:14;-3.90;99.90
30063;DHT22;16889;67.864;24.990;2024-02-04T19:16:01;-3.90;99.90
30063;DHT22;16889;67.864;24.990;2024-02-04T19:20:47;-3.90;99.90
30063;DHT22;16889;67.864;24.990;2024-02-04T19:25:33;-3.80;99.90
30063;DHT22;16889;67.864;24.990;2024-02-04T19:30:20;-3.80;99.90
30063;DHT22;16889;67.864;24.990;2024-02-04T19:35:07;-3.80;99.90
30063;DHT22;16889;67.864;24.990;2024-02-04T19:39:54;-3.70;99.90
30063;DHT22;16889;67.864;24.990;2024-02-04T19:44:40;-3.90;99.90
30063;DHT22;16889;67.864;24.990;2024-02-04T19:49:26;-4.00;99.90
30063;DHT22;16889;67.864;24.990;2024-02-04T19:54:12;-3.90;99.90
30063;DHT22;16889;67.864;24.990;2024-02-04T19:58:58;-3.90;99.90
30063;DHT22;16889;67.864;24.990;2024-02-04T20:03:49;-3.90;99.90
30063;DHT22;16889;67.864;24.990;2024-02-04T20:08:34;-3.80;99.90
30063;DHT22;16889;67.864;24.990;2024-02-04T20:13:21;-3.80;99.90
30063;DHT22;16889;67.864;24.990;2024-02-04T20:18:08;-3.70;99.90
30063;DHT22;16889;67.864;24.990;2024-02-04T20:22:54;-3.70;99.90
30063;DHT22;16889;67.864;24.990;2024-02-04T20:27:41;-3.90;99.90
30063;DHT22;16889;67.864;24.990;2024-02-04T20:32:27;-3.90;99.90
30063;DHT22;16889;67.864;24.990;2024-02-04T20:37:13;-3.90;99.90
30063;DHT22;16889;67.864;24.990;2024-02-04T20:41:59;-3.90;99.90
30063;DHT22;16889;67.864;24.990;2024-02-04T20:46:45;-3.90;99.90
30063;DHT22;16889;67.864;24.990;2024-02-04T20:51:31;-3.90;99.90
30063;DHT22;16889;67.864;24.990;2024-02-04T20:56:17;-3.90;99.90
30063;DHT22;16889;67.864;24.990;2024-02-04T21:01:03;-3.90;99.90
30063;DHT22;16889;67.864;24.990;2024-02-04T21:05:51;-3.80;99.90
30063;DHT22;16889;67.864;24.990;2024-02-04T21:10:37;-3.80;99.90
30063;DHT22;16889;67.864;24.990;2024-02-04T21:15:23;-4.00;99.90
30063;DHT22;16889;67.864;24.990;2024-02-04T21:20:10;-4.00;99.90
30063;DHT22;16889;67.864;24.990;2024-02-04T21:24:56;-4.10;99.90
30063;DHT22;16889;67.864;24.990;2024-02-04T21:29:42;-4.00;99.90
30063;DHT22;16889;67.864;24.990;2024-02-04T21:34:28;-4.10;99.90
30063;DHT22;16889;67.864;24.990;2024-02-04T21:39:14;-4.10;99.90
30063;DHT22;16889;67.864;24.990;2024-02-04T21:44:01;-4.20;99.90
30063;DHT22;16889;67.864;24.990;2024-02-04T21:48:47;-4.10;99.90
30063;DHT22;16889;67.864;24.990;2024-02-04T21:53:34;-4.10;99.90
30063;DHT22;16889;67.864;24.990;2024-02-04T21:58:20;-4.10;99.90
30063;DHT22;16889;67.864;24.990;2024-02-04T22:03:06;-4.10;99.90
30063;DHT22;16889;67.864;24.990;2024-02-04T22:07:53;-4.00;99.90
30063;DHT22;16889;67.864;24.990;2024-02-04T22:12:39;-4.00;99.90
30063;DHT22;16889;67.864;24.990;2024-02-04T22:17:25;-4.20;99.90
30063;DHT22;16889;67.864;24.990;2024-02-04T22:22:15;-4.10;99.90
30063;DHT22;16889;67.864;24.990;2024-02-04T22:27:01;-4.00;99.90
30063;DHT22;16889;67.864;24.990;2024-02-04T22:31:47;-4.10;99.90
30063;DHT22;16889;67.864;24.990;2024-02-04T22:36:33;-4.10;99.90
30063;DHT22;16889;67.864;24.990;2024-02-04T22:41:20;-4.10;99.90
30063;DHT22;16889;67.864;24.990;2024-02-04T22:46:05;-4.10;99.90
30063;DHT22;16889;67.864;24.990;2024-02-04T22:50:52;-4.20;99.90
30063;DHT22;16889;67.864;24.990;2024-02-04T22:55:38;-4.20;99.90
30063;DHT22;16889;67.864;24.990;2024-02-04T23:00:24;-4.20;99.90
30063;DHT22;16889;67.864;24.990;2024-02-04T23:05:13;-4.20;99.90
30063;DHT22;16889;67.864;24.990;2024-02-04T23:09:59;-4.20;99.90
30063;DHT22;16889;67.864;24.990;2024-02-04T23:14:45;-4.30;99.90
30063;DHT22;16889;67.864;24.990;2024-02-04T23:19:32;-4.30;99.90
30063;DHT22;16889;67.864;24.990;2024-02-04T23:24:18;-4.40;99.90
30063;DHT22;16889;67.864;24.990;2024-02-04T23:29:04;-4.30;99.90
30063;DHT22;16889;67.864;24.990;2024-02-04T23:33:50;-4.20;99.90
30063;DHT22;16889;67.864;24.990;2024-02-04T23:38:36;-4.40;99.90
30063;DHT22;16889;67.864;24.990;2024-02-04T23:43:22;-4.40;99.90
30063;DHT22;16889;67.864;24.990;2024-02-04T23:48:08;-4.40;99.90
30063;DHT22;16889;67.864;24.990;2024-02-04T23:52:54;-4.30;99.90
30063;DHT22;16889;67.864;24.990;2024-02-04T23:57:40;-4.40;99.90
